Time;durP1;ratioP1;P1;durP2;ratioP2;P2;SDS_P1;SDS_P2;PMS_P1;PMS_P2;Temp;Humidity;BMP_temperature;BMP_pressure;BME280_temperature;BME280_humidity;BME280_pressure;Samples;Min_cycle;Max_cycle;Signal;HPM_P1;HPM_P2
2022/02/14 00:01:37;;;;;;;;;;;;;;;5.43;59.48;100416.97;4320718;33;20003;-89
2022/02/14 00:04:03;;;;;;;;;;;;;;;5.42;59.48;100404.91;4320187;33;27578;-89
2022/02/14 00:06:28;;;;;;;;;;;;;;;5.46;59.49;100397.19;4320771;33;19980;-88
2022/02/14 00:08:53;;;;;;;;;;;;;;;5.34;59.48;100409.22;4332268;33;20028;-87
2022/02/14 00:11:19;;;;;;;;;;;;;;;5.52;59.49;100404.94;4333060;33;19987;-89
2022/02/14 00:13:44;;;;;;;;;;;;;;;5.39;59.49;100404.91;4333006;33;20286;-87
2022/02/14 00:16:09;;;;;;;;;;;;;;;5.50;59.49;100403.22;4346433;33;19987;-88
2022/02/14 00:18:35;;;;;;;;;;;;;;;5.49;59.49;100396.31;4332747;33;20039;-88
2022/02/14 00:21:00;;;;;;;;;;;;;;;5.52;59.49;100388.56;4332775;33;20353;-87
2022/02/14 00:23:25;;;;;;;;;;;;;;;5.44;59.48;100395.44;4320030;33;20033;-88
2022/02/14 00:25:51;;;;;;;;;;;;;;;5.32;59.48;100388.59;4331796;33;19987;-87
2022/02/14 00:28:16;;;;;;;;;;;;;;;5.39;59.49;100386.84;4332558;33;19979;-87
2022/02/14 00:30:42;;;;;;;;;;;;;;;5.40;59.49;100380.81;4321855;33;19999;-87
2022/02/14 00:33:07;;;;;;;;;;;;;;;5.54;59.49;100376.50;4334368;33;20014;-88
2022/02/14 00:35:32;;;;;;;;;;;;;;;5.43;59.49;100371.34;4322381;33;20007;-88
2022/02/14 00:37:57;;;;;;;;;;;;;;;5.41;59.48;100379.97;4333946;33;20894;-86
2022/02/14 00:40:23;;;;;;;;;;;;;;;5.35;59.48;100372.22;4321684;33;34433;-86
2022/02/14 00:42:48;;;;;;;;;;;;;;;5.35;59.48;100367.06;4334727;33;20031;-87
2022/02/14 00:45:13;;;;;;;;;;;;;;;5.46;59.48;100367.94;4334902;33;20309;-86
2022/02/14 00:47:38;;;;;;;;;;;;;;;5.38;59.48;100359.31;4334450;33;20026;-86
2022/02/14 00:50:04;;;;;;;;;;;;;;;5.38;59.48;100360.19;4348374;33;19971;-86
2022/02/14 00:52:29;;;;;;;;;;;;;;;5.34;59.48;100360.19;4322868;33;19983;-87
2022/02/14 00:54:57;;;;;;;;;;;;;;;5.33;59.48;100359.31;4334899;33;20019;-86
2022/02/14 00:57:26;;;;;;;;;;;;;;;5.38;59.48;100356.72;4335048;33;19991;-86
2022/02/14 00:59:51;;;;;;;;;;;;;;;5.33;59.48;100355.87;4334576;33;19999;-86
2022/02/14 01:02:16;;;;;;;;;;;;;;;5.14;59.47;100355.87;4322389;33;20092;-86
2022/02/14 01:04:42;;;;;;;;;;;;;;;5.33;59.48;100353.31;4334642;33;19991;-87
2022/02/14 01:07:07;;;;;;;;;;;;;;;5.18;59.47;100346.41;4333718;33;23228;-87
2022/02/14 01:09:32;;;;;;;;;;;;;;;5.07;59.46;100348.16;4334535;33;20625;-86
2022/02/14 01:11:57;;;;;;;;;;;;;;;5.07;59.46;100349.03;4334405;33;20006;-86
2022/02/14 01:14:22;;;;;;;;;;;;;;;5.02;59.46;100339.56;4334399;33;19988;-86
2022/02/14 01:16:48;;;;;;;;;;;;;;;5.04;59.46;100337.84;4321818;33;20003;-86
2022/02/14 01:19:13;;;;;;;;;;;;;;;4.76;59.45;100329.25;4322084;33;20364;-87
2022/02/14 01:21:38;;;;;;;;;;;;;;;4.96;59.45;100334.38;4334252;33;20060;-86
2022/02/14 01:24:04;;;;;;;;;;;;;;;4.86;59.45;100331.81;4334492;33;20341;-85
2022/02/14 01:26:29;;;;;;;;;;;;;;;4.79;59.45;100326.66;4334263;33;20010;-83
2022/02/14 01:28:54;;;;;;;;;;;;;;;4.78;59.44;100322.37;4334341;33;20365;-84
2022/02/14 01:31:19;;;;;;;;;;;;;;;4.75;59.45;100322.37;4334352;33;19992;-84
2022/02/14 01:33:45;;;;;;;;;;;;;;;4.78;59.44;100314.63;4334415;33;20011;-84
2022/02/14 01:36:10;;;;;;;;;;;;;;;4.62;59.44;100321.47;4322025;33;20042;-84
2022/02/14 01:38:35;;;;;;;;;;;;;;;4.57;59.43;100318.91;4334265;33;20344;-83
2022/02/14 01:41:00;;;;;;;;;;;;;;;4.64;59.44;100309.44;4333748;33;20011;-84
2022/02/14 01:43:26;;;;;;;;;;;;;;;4.59;59.44;100316.31;4334372;33;19967;-85
2022/02/14 01:45:51;;;;;;;;;;;;;;;4.53;59.43;100313.75;4334121;33;20046;-85
2022/02/14 01:48:16;;;;;;;;;;;;;;;4.61;59.44;100309.44;4334116;33;20387;-85
2022/02/14 01:50:42;;;;;;;;;;;;;;;4.47;59.43;100303.41;4334075;33;20002;-85
2022/02/14 01:53:07;;;;;;;;;;;;;;;4.54;59.43;100298.28;4321895;33;20034;-85
2022/02/14 01:55:32;;;;;;;;;;;;;;;4.31;59.42;100298.25;4333856;33;22249;-85
2022/02/14 01:58:00;;;;;;;;;;;;;;;4.23;59.42;100296.47;4321985;33;20050;-85
2022/02/14 02:00:25;;;;;;;;;;;;;;;4.14;59.41;100297.34;4334473;33;20002;-87
2022/02/14 02:02:51;;;;;;;;;;;;;;;4.22;59.42;100289.59;4334254;33;20273;-86
2022/02/14 02:05:16;;;;;;;;;;;;;;;4.13;59.42;100287.03;4321803;32;20016;-87
2022/02/14 02:07:41;;;;;;;;;;;;;;;4.08;59.41;100288.72;4334390;33;19983;-87
2022/02/14 02:10:07;;;;;;;;;;;;;;;4.09;59.41;100283.59;4334140;33;20023;-86
2022/02/14 02:12:32;;;;;;;;;;;;;;;3.94;59.40;100283.53;4322234;33;19979;-86
2022/02/14 02:15:00;;;;;;;;;;;;;;;4.07;59.41;100282.72;4334241;33;20001;-86
2022/02/14 02:17:29;;;;;;;;;;;;;;;3.87;59.39;100280.06;4347792;33;20026;-87
2022/02/14 02:19:54;;;;;;;;;;;;;;;3.95;59.40;100275.81;4333972;33;20040;-87
2022/02/14 02:22:19;;;;;;;;;;;;;;;3.91;59.40;100274.06;4345816;33;24520;-86
2022/02/14 02:24:48;;;;;;;;;;;;;;;3.89;59.39;100282.66;4334084;33;20082;-86
2022/02/14 02:27:13;;;;;;;;;;;;;;;3.83;59.40;100280.06;4347723;33;20002;-86
2022/02/14 02:29:38;;;;;;;;;;;;;;;3.79;59.39;100276.62;4347697;32;19999;-86
2022/02/14 02:32:07;;;;;;;;;;;;;;;3.76;59.38;100270.56;4333998;33;19990;-86
2022/02/14 02:34:38;;;;;;;;;;;;;;;3.69;59.39;100269.69;4321661;33;19996;-86
2022/02/14 02:37:04;;;;;;;;;;;;;;;3.79;59.39;100273.19;4321876;33;20010;-87
2022/02/14 02:39:29;;;;;;;;;;;;;;;3.80;59.39;100268.03;4333986;33;19999;-86
2022/02/14 02:41:56;;;;;;;;;;;;;;;3.75;59.38;100259.41;4321600;33;19999;-86
2022/02/14 02:44:21;;;;;;;;;;;;;;;3.68;59.38;100257.69;4347572;33;20047;-86
2022/02/14 02:46:48;;;;;;;;;;;;;;;3.59;59.37;100252.50;4333170;33;28196;-86
2022/02/14 02:49:14;;;;;;;;;;;;;;;3.62;59.38;100250.81;4333675;33;19994;-86
2022/02/14 02:51:39;;;;;;;;;;;;;;;3.55;59.37;100246.50;4332569;33;19998;-87
2022/02/14 02:54:05;;;;;;;;;;;;;;;3.57;59.37;100252.50;4321559;33;19999;-87
2022/02/14 02:56:30;;;;;;;;;;;;;;;3.33;59.36;100250.66;4347416;33;19989;-87
2022/02/14 02:58:55;;;;;;;;;;;;;;;3.27;59.36;100249.75;4333774;33;19996;-88
2022/02/14 03:01:20;;;;;;;;;;;;;;;3.40;59.37;100248.97;4321277;33;20006;-88
2022/02/14 03:03:47;;;;;;;;;;;;;;;3.38;59.36;100246.41;4321679;33;20365;-88
2022/02/14 03:06:12;;;;;;;;;;;;;;;3.36;59.36;100255.84;4333907;33;19996;-87
2022/02/14 03:08:37;;;;;;;;;;;;;;;3.30;59.36;100249.78;4346778;33;23400;-86
2022/02/14 03:11:03;;;;;;;;;;;;;;;3.24;59.36;100248.03;4346938;33;21998;-87
2022/02/14 03:13:28;;;;;;;;;;;;;;;3.19;59.35;100247.16;4333742;33;20001;-86
2022/02/14 03:15:53;;;;;;;;;;;;;;;3.31;59.37;100244.66;4333639;33;20609;-87
2022/02/14 03:18:18;;;;;;;;;;;;;;;3.24;59.36;100248.03;4347043;33;19998;-86
2022/02/14 03:20:44;;;;;;;;;;;;;;;3.26;59.36;100237.75;4333342;33;25455;-87
2022/02/14 03:23:09;;;;;;;;;;;;;;;3.10;59.36;100238.53;4333520;33;20017;-86
2022/02/14 03:25:34;;;;;;;;;;;;;;;3.13;59.35;100231.69;4346811;33;27998;-87
2022/02/14 03:27:59;;;;;;;;;;;;;;;3.12;59.35;100240.25;4333852;33;19991;-86
2022/02/14 03:30:25;;;;;;;;;;;;;;;3.07;59.35;100226.50;4321674;33;20068;-87
2022/02/14 03:32:50;;;;;;;;;;;;;;;2.98;59.34;100236.72;4321253;33;20031;-86
2022/02/14 03:35:15;;;;;;;;;;;;;;;2.96;59.35;100223.00;4333161;33;21949;-86
2022/02/14 03:37:40;;;;;;;;;;;;;;;2.99;59.34;100223.87;4321120;33;19999;-87
2022/02/14 03:40:06;;;;;;;;;;;;;;;3.03;59.35;100222.19;4321223;33;19971;-86
2022/02/14 03:42:31;;;;;;;;;;;;;;;2.99;59.34;100228.16;4333503;33;20246;-88
2022/02/14 03:44:56;;;;;;;;;;;;;;;2.77;59.33;100219.44;4320461;33;29075;-87
2022/02/14 03:47:21;;;;;;;;;;;;;;;2.86;59.33;100224.66;4333166;33;20011;-85
2022/02/14 03:49:47;;;;;;;;;;;;;;;2.82;59.34;100219.47;4346517;33;23665;-86
2022/02/14 03:52:12;;;;;;;;;;;;;;;2.80;59.34;100222.03;4333204;33;20804;-86
2022/02/14 03:54:37;;;;;;;;;;;;;;;2.76;59.33;100226.28;4346759;33;19999;-86
2022/02/14 03:57:02;;;;;;;;;;;;;;;2.78;59.33;100213.44;4321041;33;19991;-86
2022/02/14 03:59:28;;;;;;;;;;;;;;;2.76;59.33;100210.00;4346851;33;19988;-86
2022/02/14 04:01:53;;;;;;;;;;;;;;;2.74;59.33;100211.72;4321020;33;19991;-86
2022/02/14 04:04:19;;;;;;;;;;;;;;;2.65;59.31;100215.09;4334552;33;20312;-86
2022/02/14 04:06:44;;;;;;;;;;;;;;;2.61;59.32;100218.50;4348447;33;20269;-87
2022/02/14 04:09:09;;;;;;;;;;;;;;;2.63;59.32;100221.94;4347872;33;24008;-86
2022/02/14 04:11:34;;;;;;;;;;;;;;;2.64;59.33;100213.37;4348054;33;19988;-85
2022/02/14 04:13:59;;;;;;;;;;;;;;;2.61;59.32;100217.63;4347757;33;30063;-86
2022/02/14 04:16:25;;;;;;;;;;;;;;;2.63;59.32;100208.22;4334531;33;20050;-86
2022/02/14 04:18:50;;;;;;;;;;;;;;;2.52;59.32;100205.56;4321836;33;27459;-85
2022/02/14 04:21:15;;;;;;;;;;;;;;;2.55;59.31;100205.56;4321770;33;33660;-86
2022/02/14 04:23:40;;;;;;;;;;;;;;;2.43;59.32;100213.19;4348393;33;20010;-86
2022/02/14 04:26:06;;;;;;;;;;;;;;;2.34;59.30;100203.69;4322435;33;19995;-86
2022/02/14 04:28:31;;;;;;;;;;;;;;;2.37;59.31;100205.44;4334787;33;20435;-87
2022/02/14 04:30:56;;;;;;;;;;;;;;;2.40;59.31;100202.91;4322395;33;19991;-86
2022/02/14 04:33:21;;;;;;;;;;;;;;;2.32;59.31;100209.66;4334614;33;20011;-86
2022/02/14 04:35:46;;;;;;;;;;;;;;;2.33;59.31;100198.53;4322341;33;20055;-86
2022/02/14 04:38:12;;;;;;;;;;;;;;;2.35;59.30;100204.53;4334385;33;19987;-86
2022/02/14 04:40:39;;;;;;;;;;;;;;;2.27;59.30;100203.63;4334784;33;20333;-86
2022/02/14 04:43:04;;;;;;;;;;;;;;;2.23;59.30;100201.88;4348550;33;19987;-86
2022/02/14 04:45:30;;;;;;;;;;;;;;;2.28;59.30;100202.78;4334773;33;19998;-85
2022/02/14 04:47:55;;;;;;;;;;;;;;;2.22;59.30;100198.47;4322024;33;20038;-85
2022/02/14 04:50:20;;;;;;;;;;;;;;;2.13;59.30;100201.81;4322463;33;20038;-85
2022/02/14 04:52:46;;;;;;;;;;;;;;;2.25;59.30;100195.06;4348332;33;20015;-84
2022/02/14 04:55:11;;;;;;;;;;;;;;;2.19;59.30;100195.88;4334658;33;20042;-85
2022/02/14 04:57:36;;;;;;;;;;;;;;;2.12;59.29;100202.63;4347653;33;20623;-85
2022/02/14 05:00:06;;;;;;;;;;;;;;;2.15;59.30;100194.13;4348084;33;20280;-85
2022/02/14 05:02:31;;;;;;;;;;;;;;;2.10;59.29;100194.06;4334469;33;19999;-85
2022/02/14 05:04:56;;;;;;;;;;;;;;;2.16;59.30;100190.72;4334399;33;20042;-85
2022/02/14 05:07:21;;;;;;;;;;;;;;;2.10;59.29;100190.63;4333919;33;27953;-85
2022/02/14 05:09:47;;;;;;;;;;;;;;;2.13;59.29;100198.41;4334424;33;20025;-85
2022/02/14 05:12:12;;;;;;;;;;;;;;;2.14;59.30;100193.28;4348113;33;20350;-86
2022/02/14 05:14:37;;;;;;;;;;;;;;;2.15;59.30;100192.41;4333427;33;20274;-86
2022/02/14 05:17:02;;;;;;;;;;;;;;;2.06;59.29;100188.88;4334456;33;19991;-84
2022/02/14 05:19:28;;;;;;;;;;;;;;;2.03;59.29;100186.28;4348356;33;19994;-85
2022/02/14 05:21:53;;;;;;;;;;;;;;;1.98;59.28;100195.66;4322456;33;19995;-83
2022/02/14 05:24:18;;;;;;;;;;;;;;;1.74;59.27;100192.00;4348118;33;19987;-84
2022/02/14 05:26:43;;;;;;;;;;;;;;;1.87;59.28;100190.41;4334343;33;19972;-84
2022/02/14 05:29:09;;;;;;;;;;;;;;;1.81;59.28;100192.91;4334461;33;20045;-84
2022/02/14 05:31:34;;;;;;;;;;;;;;;1.83;59.27;100198.94;4322107;33;19983;-84
2022/02/14 05:33:59;;;;;;;;;;;;;;;1.81;59.28;100203.19;4334426;33;19998;-85
2022/02/14 05:36:25;;;;;;;;;;;;;;;1.83;59.27;100211.75;4348038;33;19984;-85
2022/02/14 05:38:50;;;;;;;;;;;;;;;1.83;59.27;100216.91;4334336;33;19984;-86
2022/02/14 05:41:15;;;;;;;;;;;;;;;1.84;59.28;100205.78;4322040;33;20030;-85
2022/02/14 05:43:41;;;;;;;;;;;;;;;1.86;59.28;100206.66;4347978;33;19987;-84
2022/02/14 05:46:13;;;;;;;;;;;;;;;1.76;59.27;100207.41;4334256;33;19991;-85
2022/02/14 05:48:38;;;;;;;;;;;;;;;1.76;59.27;100210.00;4334157;33;20003;-85
2022/02/14 05:51:04;;;;;;;;;;;;;;;1.75;59.28;100208.25;4334526;33;20007;-84
2022/02/14 05:53:29;;;;;;;;;;;;;;;1.75;59.26;100219.38;4334003;33;19987;-84
2022/02/14 05:55:55;;;;;;;;;;;;;;;1.84;59.28;100211.78;4321899;33;20010;-85
2022/02/14 05:58:20;;;;;;;;;;;;;;;1.81;59.28;100213.47;4334185;33;20025;-86
2022/02/14 06:00:45;;;;;;;;;;;;;;;1.67;59.27;100215.03;4334270;33;20046;-85
2022/02/14 06:03:10;;;;;;;;;;;;;;;1.64;59.27;100217.53;4347134;33;30083;-90
2022/02/14 06:05:36;;;;;;;;;;;;;;;1.71;59.27;100212.50;4334550;33;20026;-90
2022/02/14 06:08:01;;;;;;;;;;;;;;;1.80;59.28;100211.75;4323120;33;20006;-90
2022/02/14 06:10:26;;;;;;;;;;;;;;;1.70;59.27;100213.34;4323018;33;20006;-90
2022/02/14 06:12:52;;;;;;;;;;;;;;;1.76;59.27;100203.16;4323039;33;20116;-88
2022/02/14 06:15:18;;;;;;;;;;;;;;;1.80;59.27;100196.34;4322878;33;19998;-90
2022/02/14 06:17:43;;;;;;;;;;;;;;;1.64;59.27;100202.13;4323758;33;20315;-90
2022/02/14 06:20:08;;;;;;;;;;;;;;;1.64;59.26;100203.00;4334588;33;20054;-88
2022/02/14 06:22:34;;;;;;;;;;;;;;;1.61;59.26;100205.53;4334345;33;20015;-89
2022/02/14 06:24:59;;;;;;;;;;;;;;;1.65;59.27;100199.59;4322072;33;20039;-88
2022/02/14 06:27:24;;;;;;;;;;;;;;;1.56;59.26;100207.19;4321400;33;20015;-88
2022/02/14 06:29:49;;;;;;;;;;;;;;;1.70;59.27;100207.38;4333271;33;20325;-88
2022/02/14 06:32:15;;;;;;;;;;;;;;;1.58;59.26;100205.50;4334039;33;20305;-85
2022/02/14 06:34:40;;;;;;;;;;;;;;;1.69;59.26;100203.94;4347146;33;25547;-90
2022/02/14 06:37:05;;;;;;;;;;;;;;;1.54;59.26;100208.88;4334692;33;20111;-91
2022/02/14 06:39:31;;;;;;;;;;;;;;;1.75;59.27;100201.44;4335000;33;20789;-90
2022/02/14 06:41:58;;;;;;;;;;;;;;;1.76;59.27;100200.59;4334728;33;19995;-91
2022/02/14 06:44:23;;;;;;;;;;;;;;;1.93;59.28;100197.34;4331884;33;20018;-90
2022/02/14 06:46:49;;;;;;;;;;;;;;;1.97;59.28;100201.66;4307780;33;19995;-90
2022/02/14 06:49:14;;;;;;;;;;;;;;;2.11;59.29;100206.06;4308135;33;20350;-90
2022/02/14 06:51:40;;;;;;;;;;;;;;;1.95;59.28;100198.22;4308057;33;19988;-90
2022/02/14 06:54:05;;;;;;;;;;;;;;;1.89;59.28;100198.12;4308665;33;19972;-90
2022/02/14 06:56:31;;;;;;;;;;;;;;;1.98;59.29;100204.22;4320671;33;19991;-91
2022/02/14 06:58:56;;;;;;;;;;;;;;;2.17;59.30;100206.97;4320334;33;19987;-90
2022/02/14 07:01:22;;;;;;;;;;;;;;;2.17;59.30;100206.97;4307873;33;19984;-91
2022/02/14 07:03:47;;;;;;;;;;;;;;;2.29;59.30;100194.22;4313361;33;19971;-92
2022/02/14 07:06:14;;;;;;;;;;;;;;;2.21;59.29;100201.88;4323804;33;19999;-91
2022/02/14 07:08:39;;;;;;;;;;;;;;;2.29;59.30;100201.94;4323974;33;19991;-89
2022/02/14 07:11:04;;;;;;;;;;;;;;;2.30;59.30;100198.53;4324140;33;20001;-93
2022/02/14 07:13:30;;;;;;;;;;;;;;;2.33;59.30;100194.25;4324082;33;20132;-94
2022/02/14 07:15:55;;;;;;;;;;;;;;;2.39;59.31;100193.47;4321271;33;20023;-87
2022/02/14 07:18:20;;;;;;;;;;;;;;;2.44;59.32;100191.81;4345960;33;20246;-92
2022/02/14 07:20:46;;;;;;;;;;;;;;;2.41;59.31;100199.50;4322253;33;20032;-88
2022/02/14 07:23:11;;;;;;;;;;;;;;;2.34;59.30;100200.25;4333525;33;20021;-89
2022/02/14 07:25:36;;;;;;;;;;;;;;;2.38;59.31;100202.03;4334124;33;20054;-88
2022/02/14 07:28:01;;;;;;;;;;;;;;;2.64;59.32;100204.81;4333655;33;19988;-88
2022/02/14 07:30:27;;;;;;;;;;;;;;;2.69;59.33;100211.69;4321308;33;19996;-88
2022/02/14 07:32:52;;;;;;;;;;;;;;;2.58;59.33;100208.16;4321553;33;19975;-87
2022/02/14 07:35:18;;;;;;;;;;;;;;;2.52;59.32;100204.69;4334230;33;20018;-87
2022/02/14 07:37:44;;;;;;;;;;;;;;;2.47;59.31;100205.53;4332426;33;20273;-86
2022/02/14 07:40:09;;;;;;;;;;;;;;;2.69;59.32;100203.13;4333542;33;19975;-86
2022/02/14 07:42:35;;;;;;;;;;;;;;;2.71;59.32;100202.28;4321143;33;20018;-87
2022/02/14 07:45:00;;;;;;;;;;;;;;;2.71;59.32;100197.13;4333579;33;20258;-88
2022/02/14 07:47:25;;;;;;;;;;;;;;;2.88;59.34;100201.53;4321065;33;19987;-88
2022/02/14 07:49:51;;;;;;;;;;;;;;;3.03;59.35;100210.19;4333263;33;19999;-88
2022/02/14 07:52:16;;;;;;;;;;;;;;;2.99;59.34;100205.03;4333488;33;20034;-90
2022/02/14 07:54:42;;;;;;;;;;;;;;;3.06;59.35;100207.63;4333291;33;20072;-89
2022/02/14 07:57:07;;;;;;;;;;;;;;;3.08;59.35;100195.66;4321316;33;20024;-91
2022/02/14 07:59:33;;;;;;;;;;;;;;;3.28;59.36;100200.88;4321503;33;19998;-88
2022/02/14 08:02:01;;;;;;;;;;;;;;;3.22;59.36;100200.00;4335686;33;20000;-92
2022/02/14 08:04:27;;;;;;;;;;;;;;;3.39;59.37;100193.22;4334311;33;20019;-91
2022/02/14 08:06:52;;;;;;;;;;;;;;;3.56;59.38;100191.59;4334215;33;19999;-88
2022/02/14 08:09:17;;;;;;;;;;;;;;;3.59;59.38;100185.59;4348105;33;20275;-91
2022/02/14 08:11:43;;;;;;;;;;;;;;;3.67;59.38;100184.75;4323358;33;20017;-92
2022/02/14 08:14:08;;;;;;;;;;;;;;;3.72;59.39;100182.16;4318002;33;20003;-93
2022/02/14 08:16:35;;;;;;;;;;;;;;;3.68;59.39;100181.31;4318045;33;20007;-88
2022/02/14 08:19:01;;;;;;;;;;;;;;;3.82;59.39;100180.50;4318139;33;19971;-88
2022/02/14 08:21:26;;;;;;;;;;;;;;;3.89;59.39;100162.47;4318417;33;20037;-88
2022/02/14 08:24:09;;;;;;;;;;;;;;;3.76;59.38;100167.59;4318134;33;20044;-88
2022/02/14 08:26:34;;;;;;;;;;;;;;;3.95;59.39;100165.06;4318734;33;20737;-90
2022/02/14 08:29:00;;;;;;;;;;;;;;;4.00;59.40;100165.91;4331804;33;19971;-91
2022/02/14 08:31:26;;;;;;;;;;;;;;;4.06;59.41;100159.06;4318144;33;20270;-89
2022/02/14 08:33:51;;;;;;;;;;;;;;;4.30;59.42;100161.66;4318208;33;19988;-89
2022/02/14 08:36:18;;;;;;;;;;;;;;;4.31;59.41;100159.06;4318094;33;20353;-88
2022/02/14 08:38:43;;;;;;;;;;;;;;;4.52;59.43;100147.03;4318547;33;19998;-90
2022/02/14 08:41:08;;;;;;;;;;;;;;;4.73;59.44;100138.38;4318091;33;20000;-89
2022/02/14 08:43:33;;;;;;;;;;;;;;;4.69;59.44;100145.28;4318128;33;20051;-90
2022/02/14 08:45:59;;;;;;;;;;;;;;;4.86;59.45;100134.94;4319066;33;20032;-93
2022/02/14 08:48:24;;;;;;;;;;;;;;;4.82;59.45;100130.66;4324028;33;19968;-94
2022/02/14 08:51:25;;;;;;;;;;;;;;;;;;;;;
2022/02/14 08:59:55;;;;;;;;;;;;;;;5.22;59.47;100121.91;4308032;33;19980;-94
2022/02/14 09:02:20;;;;;;;;;;;;;;;5.37;59.47;100120.09;4305717;33;19996;-93
2022/02/14 09:04:45;;;;;;;;;;;;;;;5.40;59.48;100114.91;4322955;33;20050;-93
2022/02/14 09:07:11;;;;;;;;;;;;;;;5.45;59.48;100110.63;4323634;33;20047;-95
2022/02/14 09:09:36;;;;;;;;;;;;;;;5.51;59.49;100106.25;4323108;33;20023;-94
2022/02/14 09:12:01;;;;;;;;;;;;;;;5.73;59.49;100100.97;4323623;33;19991;-94
2022/02/14 09:14:36;;;;;;;;;;;;;;;5.76;59.50;100099.22;4324073;33;20031;-93
2022/02/14 09:17:01;;;;;;;;;;;;;;;5.84;59.51;100097.44;4323591;33;20007;-96
2022/02/14 09:19:27;;;;;;;;;;;;;;;5.84;59.51;100099.16;4323114;33;20313;-94
2022/02/14 09:21:57;;;;;;;;;;;;;;;5.78;59.50;100096.62;4324683;33;19997;-96
2022/02/14 09:24:23;;;;;;;;;;;;;;;5.82;59.50;100093.16;4322480;33;19992;-93
2022/02/14 09:26:48;;;;;;;;;;;;;;;6.06;59.52;100089.53;4322846;33;20029;-95
2022/02/14 09:29:13;;;;;;;;;;;;;;;6.13;59.51;100088.63;4294652;33;881206;-91
2022/02/14 09:31:39;;;;;;;;;;;;;;;6.29;59.53;100091.94;4322041;33;20096;-93
2022/02/14 09:34:04;;;;;;;;;;;;;;;6.42;59.53;100085.78;4321756;33;20003;-91
2022/02/14 09:36:30;;;;;;;;;;;;;;;6.49;59.54;100084.00;4321468;33;20004;-93
2022/02/14 09:38:55;;;;;;;;;;;;;;;6.63;59.54;100085.56;4321362;33;19988;-92
2022/02/14 09:41:21;;;;;;;;;;;;;;;6.59;59.55;100077.84;4321634;33;20015;-93
2022/02/14 09:43:49;;;;;;;;;;;;;;;6.69;59.55;100080.31;4320963;33;20063;-91
2022/02/14 09:46:14;;;;;;;;;;;;;;;6.68;59.55;100081.19;4320254;33;19992;-89
2022/02/14 09:48:40;;;;;;;;;;;;;;;6.74;59.56;100073.38;4319888;33;19991;-90
2022/02/14 09:51:09;;;;;;;;;;;;;;;6.91;59.56;100072.31;4320348;33;19976;-89
2022/02/14 09:53:38;;;;;;;;;;;;;;;6.98;59.57;100066.19;4332590;33;20329;-91
2022/02/14 09:56:03;;;;;;;;;;;;;;;7.03;59.58;100065.25;4334200;33;19999;-89
2022/02/14 09:58:29;;;;;;;;;;;;;;;7.30;59.59;100058.00;4348624;33;19975;-93
2022/02/14 10:00:55;;;;;;;;;;;;;;;7.34;59.59;100050.19;4322753;33;19983;-92
2022/02/14 10:03:22;;;;;;;;;;;;;;;7.36;59.59;100048.44;4323335;33;19987;-87
2022/02/14 10:05:54;;;;;;;;;;;;;;;7.58;59.60;100046.38;4334333;33;20010;-88
2022/02/14 10:08:26;;;;;;;;;;;;;;;7.58;59.60;100041.19;4334556;33;19976;-91
2022/02/14 10:10:52;;;;;;;;;;;;;;;7.74;59.61;100033.16;4324075;33;19980;-92
2022/02/14 10:13:27;;;;;;;;;;;;;;;7.95;59.62;100032.81;4337277;33;20007;-95
2022/02/14 10:15:52;;;;;;;;;;;;;;;8.28;59.64;100026.19;4325757;33;20340;-95
2022/02/14 10:18:34;;;;;;;;;;;;;;;8.47;59.65;100014.63;4323668;33;20039;-88
2022/02/14 10:21:17;;;;;;;;;;;;;;;8.50;59.65;100017.16;4324421;33;20046;-95
2022/02/14 10:24:09;;;;;;;;;;;;;;;8.60;59.66;100012.66;4325034;33;20058;-95
2022/02/14 10:26:50;;;;;;;;;;;;;;;8.93;59.67;100009.34;4338053;33;20007;-95
2022/02/14 10:29:19;;;;;;;;;;;;;;;8.71;59.66;100010.69;4323843;33;19983;-94
2022/02/14 10:31:45;;;;;;;;;;;;;;;9.12;59.69;100003.78;4325494;33;19984;-89
2022/02/14 10:34:26;;;;;;;;;;;;;;;9.29;59.70;100012.06;4324750;33;20000;-94
2022/02/14 10:36:52;;;;;;;;;;;;;;;9.44;59.71;100009.09;4325251;33;19987;-94
2022/02/14 10:39:20;;;;;;;;;;;;;;;9.78;59.72;100003.09;4325493;33;19991;-88
2022/02/14 10:41:46;;;;;;;;;;;;;;;9.83;59.73;99993.44;4322078;33;20334;-89
2022/02/14 10:45:07;;;;;;;;;;;;;;;10.14;59.74;99989.12;4333714;33;19991;-89
2022/02/14 10:47:08;;;;;;;;;;;;;;;9.93;59.73;99992.28;4347274;33;20043;-88
2022/02/14 10:49:34;;;;;;;;;;;;;;;9.90;59.73;99981.97;4347720;33;20363;-89
2022/02/14 10:52:03;;;;;;;;;;;;;;;9.80;59.73;99980.50;4347474;33;19984;-90
2022/02/14 10:54:34;;;;;;;;;;;;;;;9.70;59.72;99968.63;4334018;32;20058;-90
2022/02/14 10:56:59;;;;;;;;;;;;;;;9.91;59.73;99972.41;4333949;33;20410;-89
2022/02/14 10:59:26;;;;;;;;;;;;;;;10.11;59.74;99970.16;4347504;32;19999;-89
2022/02/14 11:01:51;;;;;;;;;;;;;;;10.37;59.75;99957.31;4334152;33;20046;-89
2022/02/14 11:04:17;;;;;;;;;;;;;;;10.54;59.76;99958.62;4347347;33;19995;-91
2022/02/14 11:06:42;;;;;;;;;;;;;;;10.43;59.76;99969.34;4321294;33;19991;-89
2022/02/14 11:09:08;;;;;;;;;;;;;;;10.49;59.77;99955.28;4333450;32;19984;-89
2022/02/14 11:11:39;;;;;;;;;;;;;;;10.65;59.77;99951.38;4332904;33;28965;-96
2022/02/14 11:14:05;;;;;;;;;;;;;;;10.71;59.78;99946.81;4333022;33;20046;-89
2022/02/14 11:16:31;;;;;;;;;;;;;;;10.73;59.78;99947.63;4347398;33;19983;-88
2022/02/14 11:18:57;;;;;;;;;;;;;;;10.58;59.78;99945.47;4333580;33;19996;-88
2022/02/14 11:21:23;;;;;;;;;;;;;;;11.01;59.80;99941.59;4349992;33;19964;-96
2022/02/14 11:23:54;;;;;;;;;;;;;;;11.20;59.80;99940.13;4326461;33;19977;-95
2022/02/14 11:26:20;;;;;;;;;;;;;;;11.37;59.82;99932.63;4324337;33;20051;-94
2022/02/14 11:28:53;;;;;;;;;;;;;;;11.55;59.82;99932.91;4323260;33;19984;-92
2022/02/14 11:31:43;;;;;;;;;;;;;;;11.74;59.83;99934.00;4322820;33;19984;-92
2022/02/14 11:34:09;;;;;;;;;;;;;;;11.63;59.83;99931.78;4324444;33;20009;-91
2022/02/14 11:36:35;;;;;;;;;;;;;;;11.56;59.82;99921.56;4321681;33;19991;-89
2022/02/14 11:39:01;;;;;;;;;;;;;;;11.52;59.82;99925.19;4347228;33;20050;-88
2022/02/14 11:41:41;;;;;;;;;;;;;;;11.76;59.84;99919.16;4333463;33;20031;-88
2022/02/14 11:44:16;;;;;;;;;;;;;;;11.89;59.83;99911.81;4346890;33;20341;-87
2022/02/14 11:46:42;;;;;;;;;;;;;;;11.61;59.83;99910.13;4346828;32;20006;-88
2022/02/14 11:49:07;;;;;;;;;;;;;;;11.69;59.83;99907.25;4346672;33;19975;-87
2022/02/14 11:51:36;;;;;;;;;;;;;;;11.54;59.82;99899.91;4346754;33;20099;-86
2022/02/14 11:54:03;;;;;;;;;;;;;;;11.70;59.83;99903.72;4346883;33;20306;-87
2022/02/14 11:56:32;;;;;;;;;;;;;;;11.71;59.83;99901.97;4346780;33;19997;-90
2022/02/14 11:59:07;;;;;;;;;;;;;;;11.82;59.83;99897.25;4332847;33;19976;-86
2022/02/14 12:01:53;;;;;;;;;;;;;;;11.92;59.85;99886.47;4346846;33;19984;-87
2022/02/14 12:04:38;;;;;;;;;;;;;;;12.22;59.86;99884.50;4346083;33;20064;-87
2022/02/14 12:07:16;;;;;;;;;;;;;;;11.96;59.84;99890.66;4346757;33;20042;-88
2022/02/14 12:09:57;;;;;;;;;;;;;;;11.92;59.85;99878.63;4333007;33;20362;-88
2022/02/14 12:12:41;;;;;;;;;;;;;;;11.86;59.85;99883.22;4346511;33;19979;-89
2022/02/14 12:20:37;;;;;;;;;;;;;;;12.27;59.86;99866.91;4335001;33;19998;-87
2022/02/14 12:23:02;;;;;;;;;;;;;;;12.53;59.88;99862.47;4346481;33;20011;-88
2022/02/14 12:25:28;;;;;;;;;;;;;;;12.56;59.88;99863.22;4334371;33;20770;-88
2022/02/14 12:27:56;;;;;;;;;;;;;;;12.61;59.88;99857.81;4334618;33;19995;-88
2022/02/14 12:30:22;;;;;;;;;;;;;;;12.77;59.89;99851.06;4334430;33;19980;-87
2022/02/14 12:32:59;;;;;;;;;;;;;;;12.92;59.90;99844.41;4334615;33;19979;-88
2022/02/14 12:35:31;;;;;;;;;;;;;;;13.02;59.90;99847.50;4348138;33;20037;-88
2022/02/14 12:37:56;;;;;;;;;;;;;;;13.02;59.90;99847.50;4334586;33;20003;-88
2022/02/14 12:40:22;;;;;;;;;;;;;;;13.04;59.91;99845.69;4334377;33;19976;-88
2022/02/14 12:42:47;;;;;;;;;;;;;;;13.11;59.92;99836.66;4334582;33;20002;-86
2022/02/14 12:45:13;;;;;;;;;;;;;;;12.91;59.90;99834.88;4348088;33;20008;-88
2022/02/14 12:47:44;;;;;;;;;;;;;;;13.06;59.91;99839.47;4334186;33;20331;-86
2022/02/14 12:50:17;;;;;;;;;;;;;;;12.95;59.90;99839.03;4348464;32;19956;-92
2022/02/14 12:52:43;;;;;;;;;;;;;;;13.00;59.90;99833.63;4349395;33;19986;-91
2022/02/14 12:55:08;;;;;;;;;;;;;;;13.09;59.91;99835.88;4336884;33;20344;-93
2022/02/14 12:57:48;;;;;;;;;;;;;;;13.00;59.91;99834.47;4338938;33;20003;-96